RPi & Temperatures at JO21ut

Last graph updates: Monday 26 June 2017 12:02 CEST

Sunrise: 05:17 & Sunset: 22:02 The Sun is currently visible at an elevation of 59.06 degrees and azimut of 151 and 152076848 Km from the Earth
Moonrise: 8:14 & Moonset: 23:44 Waxing Crescent Moon The Moon is 370697 Km from the Earth
Find here more details on MARS.

12:36:44 up 50 days, 19:27, 0 users, load average: 0.76, 0.50, 0.47
Current CPU frequency is: 1000 Mhz
Current GPU temperature: 34.704°C
Current inside temperature is 23.2°C with a humidity of 49.3%
Second inside temperature is 23.8°C with a pressure of 1010.73 Hpa (29.61 inHg) and an uncorrected altitude of 21.08 m
ds18b20 now showing 23.1°C

All the sensors I use, DHT22 | BMP085 | MPU6050 | BH1750FVI | MMA7455 | HMC5883L | MPL3115A2 | DS1307 | HTU21 | AM2321 | DS3231 | INA219 , and it's current readout can be viewed here please be patient as it needs to read all sensors data. The page loads after about 10 seconds. In our forum more details can be found such as the used software/sources. Feel free to add yours also..


Pressure BMP085
Pressure BMP085
Pressure BMP085
Pressure BMP085
PI CPU Temp
Inet Volkel temp
Inside temp BMP085
Humidity BMP085
PI CPU Temp
Inet Volkel temp
Inside temp BMP085
Humidity BMP085
PI CPU Temp
Inet Volkel temp
Inside temp BMP085
Humidity BMP085
PI CPU Temp
Inet Volkel temp
Inside temp BMP085
Humidity BMP085
PI CPU Temp
Inet Volkel temp
Inside temp BMP085
Humidity BMP085
Inside light BH1750FV
Inside light BH1750FV
Inside light BH1750FV
Inside light BH1750FV
Inside light BH1750FV
Inside light BH1750FV
 

Sun & Moon height


Wijchen weather

Weer Widget
ScreenSaver yr.no

Sun Moon Earth


EHVK 261025Z AUTO VRB09KT 9999 FEW044 20/08 Q1014 BLU 30008KT 9999 SCT045 EHVK 261025Z AUTO VRB09KT 9999 FEW044 20/08 Q1014 BLU 30008KT 9999 SCT045 EHVK 261025Z AUTO VRB09KT 9999 FEW044 20/08 Q1014 BLU 30008KT 9999 SCT045

Weather data from Volkel [NL] EHVK


12 minutes ago, at 10:25 UTC, the wind was blowing at a speed of 4.1 meters per second (9.2 miles per hour/8 knots) from West/Northwest (300) in Volkel [EHVK], Netherlands. The temperature was 20 °C (68 °F) with a dewpoint of 8 °C (46 °F), and the pressure was 1,014 hPa (29.94 inHg). The relative humidity was 45.9%. There were a few clouds at a height of 1341 meter (4400 feet) and scattered clouds at a height of 1372 meter (4500 feet). The visibility was >10 kilometers (>6.2 miles).




View code:

Contact me  |  My Raspberry PI forum